Detall de PIREP

Printer-friendly versionPDF version

[2011/12/28 17:33:00]
Flight IATA:CT0002
Pilot Number:026
Company ICAO:CAT
Aircraft Type:DC85/A
PAX:132
Departing Airport: LFMN
Destination Airport: LFLL
Alternate Airport:LFML
Online: VATSIM
Route:BODRU UM616 KOTIT/N0310F180 Y42 LASUR Z42 PINED
Flight Level:F200
No Slew and time accel
No pause
Crash detect
Detect pilot in Cockpit between each 30 and 45 minutes
17:33 Zero fuel Weight: 179160 Lbs, Fuel Weight: 24001 Lbs
17:33 VATSIM:LFMN 281700Z 33003KT CAVOK 11/07 Q1027 NOSIG
17:33 VATSIM:LFLL 281700Z VRB02KT 0100 R36L/0400V0550D R18R/0375N R36R/0450N R18L/0325N FG VV/// 00/00 Q1029 NOSIG
17:33 VOICE CATALONIAN / IATA CT0002
17:35 Parking Brakes off
17:50 Take-off
17:50 Take off Weight: 201914 Lbs
17:50 Wind: 321º @ 007 Knots Heading: 042º
17:50 POS N43º 39´ 35´´ E007º 13´ 13´´
17:50 Flaps:2 at 170 Knots
17:50 Gear Up: 171 Knots
17:50 Flaps:1 at 201 Knots
17:51Flaps:0 at 204 Knots
17:58 TOC
17:58 Fuel Weight: 19728 Lb
18:05 Wind:331º@007 Knots Heading: 308º Ground Speed: 409 Knots Altitude 20393 ft
18:08 TOD
18:08 Fuel Weight: 17414 Lb
18:20 Wind:067º@004 Knots Heading: 349º Ground Speed: 251 Knots Altitude 7168 ft
18:27 Gear Down: 171 Knots
18:28 Flaps:1 at 169 Knots
18:29 Flaps:2 at 148 Knots
18:29 Flaps:3 at 147 Knots
18:29 Flaps:4 at 147 Knots
18:30 Flaps:5 at 142 Knots
18:30 TouchDown:Rate -734 ft/min Speed: 135 Knots
18:30 VATSIM:LFLL 281800Z VRB02KT 0200 R36L/0800N R18R/0550N R36R/0750V1100U R18L/0500V0800U FG VV/// M00/M00 Q1029 NOSIG
18:30 Land
18:30 Wind:132º@001 Knots
18:30 Heading: 174º
18:30 Flight Duration: 00:40
18:30 Landing Weight: 194302 Lbs
18:30 POS N45º 43´ 18´´ E005º 05´ 36´´
18:34 Parking brakes on
18:34 Block to Block Duration: 00:59
18:34 Final Fuel: 14788 Lbls
18:34 Spent Fuel: 9212 Lbls
18:34 Flight Length: 205 NM
18:34 TOD Land Length: 100 NM

Exportar CSV

Powered by Drupal - Modified by Danger4k